createdAt,value
2023-03-23T15:58:49.120Z,3.21
2023-03-23T16:01:15.508Z,3.00
2023-03-23T16:03:41.912Z,2.93
2023-03-23T16:06:08.245Z,3.04
2023-03-23T16:08:34.612Z,2.80
2023-03-23T16:11:00.985Z,2.97
2023-03-23T16:13:27.297Z,3.09
2023-03-23T16:15:53.869Z,3.04
2023-03-23T16:18:20.191Z,2.94
2023-03-23T16:20:46.505Z,3.10
2023-03-23T16:23:13.031Z,3.11
2023-03-23T16:25:39.370Z,3.48
2023-03-23T16:28:05.678Z,3.41
2023-03-23T16:30:32.064Z,3.42
2023-03-23T16:32:58.431Z,3.78
2023-03-23T16:35:24.791Z,3.30
2023-03-23T16:37:51.108Z,3.12
2023-03-23T16:40:33.841Z,3.24
2023-03-23T16:43:00.173Z,3.68
2023-03-23T16:45:26.492Z,3.64
2023-03-23T16:47:53.079Z,3.27
2023-03-23T16:50:19.480Z,3.21
2023-03-23T16:52:46.187Z,3.29
2023-03-23T16:55:13.023Z,3.36
2023-03-23T16:57:41.370Z,3.60
2023-03-23T17:00:08.419Z,3.31
2023-03-23T17:02:34.816Z,3.65
2023-03-23T17:05:01.199Z,3.88
2023-03-23T17:07:27.517Z,3.69
2023-03-23T17:09:53.877Z,4.08
2023-03-23T17:12:20.226Z,4.00
2023-03-23T17:14:46.733Z,3.67
2023-03-23T17:17:13.146Z,3.71
2023-03-23T17:19:39.477Z,3.67
2023-03-23T17:22:05.866Z,4.01
2023-03-23T17:24:32.286Z,3.64
2023-03-23T17:26:58.652Z,3.81
2023-03-23T17:29:24.988Z,3.79
2023-03-23T17:31:51.333Z,3.77
2023-03-23T17:34:18.826Z,3.77
2023-03-23T17:36:46.094Z,3.78
2023-03-23T17:39:12.402Z,3.79
2023-03-23T17:41:38.719Z,3.73
2023-03-23T17:44:05.037Z,3.82
2023-03-23T17:46:31.401Z,4.09
2023-03-23T17:48:57.737Z,3.87
2023-03-23T17:51:24.060Z,4.04
2023-03-23T17:53:50.406Z,4.20
2023-03-23T17:56:16.716Z,4.19
2023-03-23T17:58:43.044Z,4.32
2023-03-23T18:01:09.425Z,3.92
2023-03-23T18:03:35.792Z,4.08
2023-03-23T18:06:02.123Z,3.99
2023-03-23T18:08:28.514Z,4.20
2023-03-23T18:10:54.845Z,4.15
2023-03-23T18:13:21.156Z,4.13
2023-03-23T18:15:47.463Z,4.13
2023-03-23T18:18:14.022Z,4.02
2023-03-23T18:20:40.374Z,4.04
2023-03-23T18:23:06.702Z,4.07
2023-03-23T18:25:33.014Z,4.21
2023-03-23T18:28:05.773Z,4.24
2023-03-23T18:30:33.418Z,4.12
2023-03-23T18:32:59.809Z,4.44
2023-03-23T18:35:26.137Z,4.23
2023-03-23T18:37:52.463Z,4.29
2023-03-23T18:40:18.805Z,4.28
2023-03-23T18:42:45.152Z,4.69
2023-03-23T18:45:11.510Z,4.31
2023-03-23T18:47:37.876Z,4.35
2023-03-23T18:50:04.192Z,4.33
2023-03-23T18:52:30.523Z,4.46
2023-03-23T18:54:56.857Z,4.34
2023-03-23T18:57:23.166Z,4.34
2023-03-23T18:59:49.500Z,4.47
2023-03-23T19:02:15.992Z,4.54
2023-03-23T19:04:42.341Z,4.64
2023-03-23T19:07:08.677Z,4.58
2023-03-23T19:09:35.010Z,4.52
2023-03-23T19:12:01.327Z,4.43
2023-03-23T19:14:27.669Z,4.11
2023-03-23T19:16:53.995Z,4.25
2023-03-23T19:19:20.494Z,4.23
2023-03-23T19:21:47.329Z,4.26
2023-03-23T19:24:13.720Z,4.41
2023-03-23T19:26:40.055Z,4.40
2023-03-23T19:31:35.672Z,4.15
2023-03-23T19:34:01.998Z,4.10
2023-03-23T19:36:28.307Z,4.55
2023-03-23T19:38:54.712Z,4.49
2023-03-23T19:41:21.221Z,4.40
2023-03-23T19:43:47.558Z,3.98
2023-03-23T19:46:14.148Z,4.13
2023-03-23T19:48:40.786Z,3.96
2023-03-23T19:51:07.145Z,4.11
2023-03-23T19:53:33.499Z,4.19
2023-03-23T19:55:59.822Z,3.99
2023-03-23T19:58:26.129Z,3.93
2023-03-23T20:00:52.434Z,3.87
2023-03-23T20:03:18.826Z,3.77
2023-03-23T20:05:45.565Z,3.68
2023-03-23T20:08:12.155Z,3.65
2023-03-23T20:10:38.651Z,3.62
2023-03-23T20:13:06.156Z,3.84
2023-03-23T20:15:32.503Z,3.65
2023-03-23T20:17:58.870Z,3.57
2023-03-23T20:20:25.206Z,3.73
2023-03-23T20:22:54.435Z,3.54
2023-03-23T20:25:22.263Z,3.34
2023-03-23T20:27:48.600Z,3.58
2023-03-23T20:30:14.967Z,3.15
2023-03-23T20:32:41.320Z,3.39
2023-03-23T20:35:07.662Z,3.42
2023-03-23T20:37:34.063Z,3.53
2023-03-23T20:40:00.405Z,3.51
2023-03-23T20:42:26.746Z,3.76
2023-03-23T20:44:53.100Z,3.74
2023-03-23T20:47:19.410Z,3.77
2023-03-23T20:49:53.095Z,3.88
2023-03-23T20:52:20.066Z,3.78
2023-03-23T20:54:46.381Z,3.89
2023-03-23T20:57:12.729Z,3.91
2023-03-23T20:59:39.104Z,3.83
2023-03-23T21:02:05.469Z,4.08
2023-03-23T21:04:31.794Z,3.92
2023-03-23T21:06:58.116Z,4.05
2023-03-23T21:09:24.426Z,4.23
2023-03-23T21:11:50.731Z,3.84
2023-03-23T21:14:17.041Z,3.94
2023-03-23T21:16:43.388Z,3.85
2023-03-23T21:19:09.957Z,3.40
2023-03-23T21:21:36.497Z,3.47
2023-03-23T21:24:02.821Z,3.23
2023-03-23T21:26:29.142Z,3.49
2023-03-23T21:28:55.449Z,3.53
2023-03-23T21:31:21.786Z,3.41
2023-03-23T21:33:48.093Z,3.36
2023-03-23T21:36:14.418Z,3.45
2023-03-23T21:38:40.733Z,3.29
2023-03-23T21:41:07.070Z,3.47
2023-03-23T21:43:33.398Z,3.28
2023-03-23T21:45:59.724Z,3.51
2023-03-23T21:48:26.061Z,3.51
2023-03-23T21:50:52.392Z,3.43
2023-03-23T21:53:18.719Z,3.30
2023-03-23T21:55:45.061Z,3.05
2023-03-23T21:58:11.371Z,3.46
2023-03-23T22:00:37.677Z,3.36
2023-03-23T22:03:03.998Z,3.39
2023-03-23T22:05:30.378Z,3.63
2023-03-23T22:07:56.703Z,3.73
2023-03-23T22:10:23.042Z,3.68
2023-03-23T22:12:49.361Z,3.98
2023-03-23T22:15:15.684Z,4.43
2023-03-23T22:17:42.003Z,4.28
2023-03-23T22:20:08.340Z,4.46
2023-03-23T22:22:34.675Z,4.43
2023-03-23T22:25:00.995Z,4.37
2023-03-23T22:27:27.317Z,4.42
2023-03-23T22:29:53.638Z,4.37
2023-03-23T22:32:19.964Z,4.54
2023-03-23T22:34:46.266Z,4.87
2023-03-23T22:37:12.589Z,5.10
2023-03-23T22:39:38.901Z,5.13
2023-03-23T22:42:05.285Z,5.35
2023-03-23T22:44:31.593Z,5.67
2023-03-23T22:46:57.902Z,5.97
2023-03-23T22:49:24.228Z,6.14
2023-03-23T22:51:50.535Z,6.86
2023-03-23T22:54:16.877Z,7.04
2023-03-23T22:56:43.214Z,6.77
2023-03-23T22:59:09.556Z,6.99
2023-03-23T23:01:36.071Z,6.78
2023-03-23T23:04:02.571Z,7.13
2023-03-23T23:06:28.939Z,7.29
2023-03-23T23:08:55.278Z,7.28
2023-03-23T23:11:21.605Z,6.99
2023-03-23T23:13:47.928Z,7.12
2023-03-23T23:16:14.328Z,7.69
2023-03-23T23:18:40.697Z,7.57
2023-03-23T23:21:07.054Z,7.40
2023-03-23T23:23:33.372Z,7.44
2023-03-23T23:25:59.690Z,7.84
2023-03-23T23:28:26.006Z,7.77
2023-03-23T23:30:52.376Z,7.63
2023-03-23T23:33:18.796Z,8.10
2023-03-23T23:35:45.172Z,7.90
2023-03-23T23:38:11.519Z,8.20
2023-03-23T23:40:37.955Z,7.98
2023-03-23T23:43:04.309Z,8.33
2023-03-23T23:45:30.614Z,8.36
2023-03-23T23:47:57.000Z,7.94
2023-03-23T23:50:23.345Z,7.82
2023-03-23T23:52:49.657Z,8.15
2023-03-23T23:55:15.980Z,7.93
2023-03-23T23:57:42.306Z,8.04
